Terminal Aerodrome Forecast
Issued by NWS Charleston, WV

Home | Current Version | Previous Version | Text Only | Print | Product List | Glossary On
Versions: 1 2 3 4 5 6 7 8 9 10 11 12 13 14 15 16 17 18 19 20 21 22 23 24 25 26 27 28 29 30 31 32 33 34 35 36 37 38 39 40 41 42
420
FTUS41 KRLX 211458 AAA
TAFCRW
TAF AMD
KCRW 211458Z 2115/2212 00000KT P6SM VCSH SCT040
     FM211700 27004KT P6SM SCT040
     FM212000 VRB03KT P6SM FEW060
     FM220800 00000KT 4SM BR FEW001
     FM220900 00000KT 3/4SM BR SCT001=

USA.gov is the U.S. government's official web portal to all federal, state and local government web resources and services.